Stewartstown, Pennsylvania
Current Conditions -  °F | °C
As of 9:53 AM on Saturday 25 Oct 2014 (Local Time) from KTHV Reporting Station
Clear Clear  
Wind Chill: 59°   Ceiling: Unl
Heat Index: 59°   Visibility: 10mi
Dew Point: 41°   Wind: 9mph
Humidity: 51%   Direction: 260°W
Pressure: 29.92"   Gusts: NA
Location:  39.75°N, 76.59°W
Report Text: KTHV 251353Z AUTO 26008KT 10SM CLR 15/05 A2992 RMK AO2 SLP135 T01500050
Loading
Personal Weather Stations






























Interactive Weather Map
Tropical Storm Tracking
New forecast layout! Learn more

10-Day Weather Forecast

Advertisements
Track Severe Weather on mobile